createdAt,value
2023-02-25T00:01:12.926Z,79.50
2023-02-25T00:03:40.187Z,79.60
2023-02-25T00:06:08.003Z,79.60
2023-02-25T00:08:35.954Z,79.70
2023-02-25T00:11:04.354Z,79.70
2023-02-25T00:13:31.426Z,79.70
2023-02-25T00:15:58.443Z,79.70
2023-02-25T00:18:28.640Z,79.80
2023-02-25T00:20:55.516Z,79.70
2023-02-25T00:23:22.354Z,79.70
2023-02-25T00:25:49.580Z,79.70
2023-02-25T00:28:16.465Z,79.70
2023-02-25T00:30:43.440Z,79.70
2023-02-25T00:33:11.232Z,79.70
2023-02-25T00:35:41.524Z,79.70
2023-02-25T00:38:15.653Z,79.70
2023-02-25T00:40:42.866Z,79.80
2023-02-25T00:43:09.808Z,79.90
2023-02-25T00:45:39.496Z,79.90
2023-02-25T00:48:06.935Z,80.00
2023-02-25T00:50:34.393Z,80.10
2023-02-25T00:53:01.278Z,80.20
2023-02-25T00:55:33.765Z,80.20
2023-02-25T00:58:04.460Z,80.20
2023-02-25T01:00:35.878Z,80.20
2023-02-25T01:03:07.667Z,80.20
2023-02-25T01:05:34.697Z,80.10
2023-02-25T01:08:02.220Z,80.60
2023-02-25T01:10:29.220Z,80.00
2023-02-25T01:12:56.051Z,80.00
2023-02-25T01:15:22.954Z,79.90
2023-02-25T01:17:49.798Z,79.90
2023-02-25T01:20:20.068Z,79.90
2023-02-25T01:22:46.899Z,79.80
2023-02-25T01:25:15.972Z,79.80
2023-02-25T01:27:42.915Z,79.80
2023-02-25T01:30:10.578Z,79.90
2023-02-25T01:32:37.599Z,79.80
2023-02-25T01:35:05.178Z,79.90
2023-02-25T01:37:32.084Z,80.00
2023-02-25T01:39:58.975Z,80.10
2023-02-25T01:42:25.825Z,80.20
2023-02-25T01:45:17.871Z,80.30
2023-02-25T01:47:57.524Z,80.40
2023-02-25T01:50:25.973Z,80.40
2023-02-25T01:52:53.048Z,80.40
2023-02-25T01:55:20.423Z,80.60
2023-02-25T01:57:47.333Z,80.70
2023-02-25T02:00:17.554Z,80.70
2023-02-25T02:02:45.606Z,80.60
2023-02-25T02:05:12.618Z,80.50
2023-02-25T02:07:39.467Z,80.50
2023-02-25T02:10:06.555Z,80.60
2023-02-25T02:12:36.613Z,80.50
2023-02-25T02:15:06.456Z,80.50
2023-02-25T02:17:44.466Z,80.40
2023-02-25T02:20:27.391Z,80.40
2023-02-25T02:23:23.846Z,80.40
2023-02-25T02:26:09.536Z,80.40
2023-02-25T02:29:07.682Z,80.30
2023-02-25T02:32:13.454Z,80.30
2023-02-25T02:34:42.513Z,80.20
2023-02-25T02:37:32.901Z,80.20
2023-02-25T02:40:09.619Z,80.20
2023-02-25T02:42:52.653Z,80.20
2023-02-25T02:45:29.580Z,80.20
2023-02-25T02:48:02.279Z,80.30
2023-02-25T02:50:33.958Z,80.30
2023-02-25T02:53:04.296Z,80.30
2023-02-25T02:55:37.267Z,80.30
2023-02-25T02:58:32.527Z,80.30
2023-02-25T03:01:12.317Z,80.30
2023-02-25T03:03:41.812Z,80.30
2023-02-25T03:06:10.678Z,80.20
2023-02-25T03:08:44.849Z,80.20
2023-02-25T03:11:12.327Z,80.30
2023-02-25T03:13:39.484Z,80.30
2023-02-25T03:16:08.176Z,80.20
2023-02-25T03:18:47.911Z,80.20
2023-02-25T03:21:18.292Z,80.20
2023-02-25T03:23:46.620Z,80.30
2023-02-25T03:26:30.162Z,80.30
2023-02-25T03:28:57.078Z,80.30
2023-02-25T03:31:33.597Z,80.30
2023-02-25T03:34:08.699Z,80.40
2023-02-25T03:36:42.309Z,80.40
2023-02-25T03:39:15.606Z,80.40
2023-02-25T03:41:44.855Z,80.30
2023-02-25T03:44:19.337Z,80.40
2023-02-25T03:46:46.667Z,80.40
2023-02-25T03:49:21.407Z,80.30
2023-02-25T03:51:48.552Z,80.40
2023-02-25T03:54:16.731Z,80.50
2023-02-25T03:56:44.748Z,80.50
2023-02-25T03:59:11.746Z,80.60
2023-02-25T04:01:39.092Z,80.70
2023-02-25T04:04:05.916Z,80.70
2023-02-25T04:06:32.764Z,80.70
2023-02-25T04:08:59.745Z,80.70
2023-02-25T04:11:26.653Z,80.70
2023-02-25T04:13:53.508Z,80.70
2023-02-25T04:16:20.743Z,80.60
2023-02-25T04:18:47.761Z,80.60
2023-02-25T04:21:30.906Z,80.60
2023-02-25T04:23:58.303Z,80.50
2023-02-25T04:26:25.510Z,80.50
2023-02-25T04:28:52.467Z,80.50
2023-02-25T04:31:19.810Z,80.50
2023-02-25T04:33:50.018Z,80.50
2023-02-25T04:36:25.505Z,80.50
2023-02-25T04:38:52.670Z,80.50
2023-02-25T04:41:19.616Z,80.40
2023-02-25T04:43:46.515Z,80.40
2023-02-25T04:46:13.715Z,80.30
2023-02-25T04:48:40.724Z,80.30
2023-02-25T04:51:07.717Z,80.30
2023-02-25T04:53:34.716Z,80.30
2023-02-25T04:56:05.533Z,80.40
2023-02-25T04:58:33.804Z,80.30
2023-02-25T05:01:01.518Z,80.40
2023-02-25T05:03:28.916Z,80.40
2023-02-25T05:05:55.867Z,80.30
2023-02-25T05:08:22.804Z,80.30
2023-02-25T05:10:49.908Z,80.30
2023-02-25T05:13:17.320Z,80.40
2023-02-25T05:15:44.267Z,80.40
2023-02-25T05:18:11.134Z,80.30
2023-02-25T05:20:46.197Z,80.30
2023-02-25T05:23:13.517Z,80.30
2023-02-25T05:25:43.493Z,80.30
2023-02-25T05:28:13.378Z,80.30
2023-02-25T05:30:40.409Z,80.30
2023-02-25T05:33:09.227Z,80.30
2023-02-25T05:35:39.202Z,80.30
2023-02-25T05:38:06.011Z,80.30
2023-02-25T05:40:33.068Z,80.30
2023-02-25T05:43:00.862Z,80.30
2023-02-25T05:45:28.044Z,80.20
2023-02-25T05:47:55.253Z,80.20
2023-02-25T05:50:22.099Z,80.30
2023-02-25T05:52:49.010Z,80.30
2023-02-25T05:55:18.942Z,80.30
2023-02-25T05:57:46.281Z,80.30
2023-02-25T06:00:15.286Z,80.30
2023-02-25T06:02:44.364Z,80.30
2023-02-25T06:05:11.362Z,80.30
2023-02-25T06:07:38.167Z,80.20
2023-02-25T06:10:05.444Z,80.10
2023-02-25T06:12:33.114Z,80.20
2023-02-25T06:15:00.218Z,80.10
2023-02-25T06:17:27.098Z,80.20
2023-02-25T06:19:54.034Z,80.20
2023-02-25T06:22:21.377Z,80.20
2023-02-25T06:24:48.408Z,80.20
2023-02-25T06:27:15.549Z,80.70
2023-02-25T06:29:42.442Z,80.20
2023-02-25T06:32:10.628Z,80.20
2023-02-25T06:34:38.122Z,80.30
2023-02-25T06:37:05.278Z,80.20
2023-02-25T06:39:32.128Z,80.20
2023-02-25T06:41:58.974Z,80.30
2023-02-25T06:44:27.181Z,80.30
2023-02-25T06:46:57.152Z,80.30
2023-02-25T06:49:24.211Z,80.30
2023-02-25T06:51:51.111Z,80.30
2023-02-25T06:54:18.306Z,80.40
2023-02-25T06:56:45.265Z,80.40
2023-02-25T06:59:12.123Z,80.40
2023-02-25T07:01:39.105Z,80.50
2023-02-25T07:04:06.184Z,80.50
2023-02-25T07:06:33.129Z,80.50
2023-02-25T07:08:59.990Z,80.60
2023-02-25T07:11:29.503Z,80.50
2023-02-25T07:13:56.635Z,80.60
2023-02-25T07:16:23.841Z,80.50
2023-02-25T07:18:51.123Z,80.40
2023-02-25T07:21:18.164Z,80.50
2023-02-25T07:23:45.072Z,80.40
2023-02-25T07:26:12.890Z,80.40
2023-02-25T07:28:39.926Z,80.40
2023-02-25T07:31:17.586Z,80.30
2023-02-25T07:33:44.780Z,80.30
2023-02-25T07:36:11.938Z,80.30
2023-02-25T07:38:39.062Z,80.30
2023-02-25T07:41:10.496Z,80.30
2023-02-25T07:43:37.391Z,80.30
2023-02-25T07:46:04.686Z,80.70
2023-02-25T07:48:31.717Z,80.30
2023-02-25T07:51:05.674Z,80.30
2023-02-25T07:53:33.748Z,80.20
2023-02-25T07:56:00.961Z,80.10
2023-02-25T07:58:30.384Z,80.00
2023-02-25T08:00:57.535Z,80.00
2023-02-25T08:03:24.711Z,80.00
2023-02-25T08:05:52.667Z,79.90
2023-02-25T08:08:19.826Z,79.80
2023-02-25T08:10:50.124Z,79.80
2023-02-25T08:13:16.989Z,79.70
2023-02-25T08:15:44.265Z,79.70
2023-02-25T08:18:11.409Z,79.60
2023-02-25T08:20:38.577Z,79.60
2023-02-25T08:23:06.469Z,79.50
2023-02-25T08:25:33.397Z,79.40
2023-02-25T08:28:01.249Z,79.40
2023-02-25T08:30:28.266Z,79.30
2023-02-25T08:32:55.259Z,79.20
2023-02-25T08:35:22.150Z,79.10
2023-02-25T08:37:49.036Z,79.10
2023-02-25T08:40:18.058Z,79.10
2023-02-25T08:42:45.920Z,79.00
2023-02-25T08:45:12.945Z,78.90
2023-02-25T08:47:39.845Z,78.90
2023-02-25T08:50:07.046Z,78.80
2023-02-25T08:52:33.966Z,78.70
2023-02-25T08:55:04.143Z,78.70
2023-02-25T08:57:31.070Z,78.60
2023-02-25T08:59:58.073Z,79.20
2023-02-25T09:02:24.919Z,78.60
2023-02-25T09:04:51.860Z,78.50
2023-02-25T09:07:18.773Z,78.50
2023-02-25T09:09:45.674Z,78.40
2023-02-25T09:12:12.536Z,78.40
2023-02-25T09:14:39.434Z,78.30
2023-02-25T09:17:06.522Z,78.20
2023-02-25T09:19:33.741Z,78.10
2023-02-25T09:22:01.480Z,78.10
2023-02-25T09:24:30.176Z,78.10
2023-02-25T09:26:57.143Z,78.00
2023-02-25T09:29:24.015Z,78.00
2023-02-25T09:31:51.111Z,77.90
2023-02-25T09:34:18.462Z,77.80
2023-02-25T09:36:45.295Z,77.80
2023-02-25T09:39:12.935Z,77.70
2023-02-25T09:42:07.484Z,77.60
2023-02-25T09:44:35.998Z,77.50
2023-02-25T09:47:12.783Z,77.50
2023-02-25T09:49:46.867Z,77.50
2023-02-25T09:52:36.159Z,77.60
2023-02-25T09:55:42.169Z,77.60
2023-02-25T09:58:26.629Z,77.60
2023-02-25T10:01:11.044Z,77.50
2023-02-25T10:04:22.506Z,77.20
2023-02-25T10:06:50.595Z,77.10
2023-02-25T10:09:37.520Z,77.00
2023-02-25T10:12:22.969Z,76.80
2023-02-25T10:15:20.500Z,76.60
2023-02-25T10:18:28.593Z,76.50
2023-02-25T10:20:55.433Z,76.20
2023-02-25T10:23:40.298Z,76.00
2023-02-25T10:26:14.817Z,75.80
2023-02-25T10:28:41.898Z,75.70
2023-02-25T10:31:12.775Z,75.80
2023-02-25T10:33:40.741Z,75.90
2023-02-25T10:36:18.719Z,76.00
2023-02-25T10:38:48.273Z,75.90
2023-02-25T10:41:15.306Z,75.80
2023-02-25T10:43:42.423Z,75.60
2023-02-25T10:46:37.018Z,75.50
2023-02-25T10:49:16.193Z,75.50
2023-02-25T10:52:03.650Z,75.30
2023-02-25T10:54:47.884Z,75.20
2023-02-25T10:57:15.698Z,75.10
2023-02-25T10:59:45.584Z,75.10
2023-02-25T11:02:23.864Z,75.10
2023-02-25T11:04:50.869Z,74.90
2023-02-25T11:07:40.968Z,74.80
2023-02-25T11:10:21.651Z,74.40
2023-02-25T11:12:55.322Z,74.30
2023-02-25T11:15:43.069Z,74.30
2023-02-25T11:18:29.674Z,74.20
2023-02-25T11:21:07.193Z,74.50
2023-02-25T11:23:44.401Z,74.00
2023-02-25T11:26:41.221Z,73.90
2023-02-25T11:29:12.375Z,73.80
2023-02-25T11:31:40.979Z,73.70
2023-02-25T11:34:15.574Z,73.60
2023-02-25T11:36:42.543Z,73.70
2023-02-25T11:39:16.913Z,73.70
2023-02-25T11:41:45.380Z,73.60
2023-02-25T11:44:27.023Z,73.50
2023-02-25T11:47:21.727Z,73.30
2023-02-25T11:50:07.693Z,72.80
2023-02-25T11:53:03.613Z,72.50
2023-02-25T11:55:48.542Z,72.20
2023-02-25T11:58:23.045Z,71.90
2023-02-25T12:01:04.978Z,72.30
2023-02-25T12:03:31.785Z,71.50
2023-02-25T12:06:20.725Z,71.50
2023-02-25T12:08:51.274Z,71.20
2023-02-25T12:11:40.408Z,71.00
2023-02-25T12:14:22.637Z,70.70
2023-02-25T12:17:09.180Z,70.50
2023-02-25T12:19:38.748Z,70.50
2023-02-25T12:22:23.658Z,70.30
2023-02-25T12:24:59.813Z,70.20
2023-02-25T12:27:41.971Z,70.10
2023-02-25T12:30:21.587Z,70.10
2023-02-25T12:32:57.660Z,70.00
2023-02-25T12:36:03.900Z,70.10
2023-02-25T12:39:02.359Z,70.10
2023-02-25T12:41:47.757Z,70.40
2023-02-25T12:44:32.779Z,71.00
2023-02-25T12:47:25.581Z,71.60
2023-02-25T12:50:26.769Z,72.10
2023-02-25T12:53:20.067Z,72.50
2023-02-25T12:56:19.954Z,72.80
2023-02-25T12:59:11.732Z,73.00
2023-02-25T13:01:48.246Z,73.10
2023-02-25T13:04:33.731Z,73.20
2023-02-25T13:07:26.671Z,73.30
2023-02-25T13:10:05.674Z,73.20
2023-02-25T13:13:26.425Z,73.20
2023-02-25T13:16:20.845Z,73.20
2023-02-25T13:19:25.372Z,73.30
2023-02-25T13:22:26.359Z,73.30
2023-02-25T13:25:25.610Z,73.40
2023-02-25T13:28:22.984Z,73.40
2023-02-25T13:30:52.430Z,73.20
2023-02-25T13:33:36.168Z,73.10
2023-02-25T13:36:30.909Z,73.10
2023-02-25T13:39:32.155Z,73.00
2023-02-25T13:42:24.325Z,73.10
2023-02-25T13:44:57.525Z,73.30
2023-02-25T13:47:31.103Z,73.20
2023-02-25T13:50:03.436Z,72.80
2023-02-25T13:52:51.802Z,72.40
2023-02-25T13:55:24.605Z,72.20
2023-02-25T13:57:55.302Z,72.10
2023-02-25T14:00:58.987Z,72.10
2023-02-25T14:03:34.799Z,71.90
2023-02-25T14:06:22.980Z,72.10
2023-02-25T14:09:06.715Z,72.10
2023-02-25T14:11:43.617Z,72.10
2023-02-25T14:14:22.699Z,71.90
2023-02-25T14:17:09.672Z,71.70
2023-02-25T14:20:16.807Z,71.40
2023-02-25T14:22:47.624Z,71.20
2023-02-25T14:25:42.105Z,71.10
2023-02-25T14:28:14.923Z,71.00
2023-02-25T14:30:59.787Z,70.80
2023-02-25T14:33:39.550Z,70.80
2023-02-25T14:36:44.462Z,70.70
2023-02-25T14:39:29.989Z,70.50
2023-02-25T14:42:15.300Z,70.40
2023-02-25T14:44:56.772Z,70.40
2023-02-25T14:47:30.211Z,70.30
2023-02-25T14:50:16.294Z,70.20
2023-02-25T14:53:12.227Z,70.00
2023-02-25T14:55:53.777Z,69.90
2023-02-25T14:58:48.355Z,69.90
2023-02-25T15:01:24.401Z,69.70
2023-02-25T15:04:28.310Z,69.70
2023-02-25T15:07:15.476Z,69.60
2023-02-25T15:10:05.983Z,69.60
2023-02-25T15:12:41.580Z,69.60
2023-02-25T15:15:48.915Z,69.60
2023-02-25T15:18:28.789Z,69.50
2023-02-25T15:20:56.131Z,69.60
2023-02-25T15:23:23.785Z,69.50
2023-02-25T15:25:53.966Z,69.50
2023-02-25T15:28:30.108Z,69.40
2023-02-25T15:31:02.954Z,69.30
2023-02-25T15:33:39.578Z,69.20
2023-02-25T15:36:15.597Z,69.00
2023-02-25T15:38:47.193Z,68.90
2023-02-25T15:41:29.475Z,68.60
2023-02-25T15:44:08.554Z,68.30
2023-02-25T15:46:35.556Z,68.20
2023-02-25T15:49:02.430Z,68.10
2023-02-25T15:51:53.776Z,68.10
2023-02-25T15:54:29.821Z,67.90
2023-02-25T15:56:58.020Z,67.90
2023-02-25T15:59:44.349Z,68.00
2023-02-25T16:02:29.967Z,67.90
2023-02-25T16:05:35.525Z,68.00
2023-02-25T16:08:17.568Z,68.10
2023-02-25T16:10:46.217Z,68.10
2023-02-25T16:13:34.856Z,68.00
2023-02-25T16:16:02.502Z,67.90
2023-02-25T16:18:36.937Z,68.10
2023-02-25T16:21:06.186Z,68.00
2023-02-25T16:23:35.537Z,68.00
2023-02-25T16:26:17.362Z,67.80
2023-02-25T16:28:50.430Z,67.80
2023-02-25T16:31:26.867Z,67.70
2023-02-25T16:33:55.007Z,67.70
2023-02-25T16:36:37.108Z,67.70
2023-02-25T16:39:18.548Z,67.80
2023-02-25T16:41:45.851Z,67.90
2023-02-25T16:44:25.195Z,68.10
2023-02-25T16:46:52.806Z,68.30
2023-02-25T16:49:28.598Z,68.50
2023-02-25T16:51:55.632Z,68.70
2023-02-25T16:54:33.615Z,68.90
2023-02-25T16:57:01.948Z,69.20
2023-02-25T16:59:36.314Z,69.30
2023-02-25T17:02:16.450Z,69.40
2023-02-25T17:04:47.340Z,69.40
2023-02-25T17:07:19.622Z,69.50
2023-02-25T17:09:51.334Z,69.60
2023-02-25T17:12:26.902Z,69.60
2023-02-25T17:14:56.709Z,69.70
2023-02-25T17:17:37.328Z,69.60
2023-02-25T17:20:06.689Z,69.60
2023-02-25T17:22:33.806Z,69.60
2023-02-25T17:25:03.960Z,69.50
2023-02-25T17:27:30.932Z,69.50
2023-02-25T17:29:57.943Z,69.40
2023-02-25T17:32:27.541Z,69.40
2023-02-25T17:34:56.023Z,69.40
2023-02-25T17:37:23.275Z,69.40
2023-02-25T17:39:50.267Z,69.40
2023-02-25T17:42:36.998Z,69.50
2023-02-25T17:45:07.434Z,69.40
2023-02-25T17:47:35.170Z,69.40
2023-02-25T17:50:32.012Z,69.30
2023-02-25T17:52:59.185Z,69.30
2023-02-25T17:55:32.130Z,69.30
2023-02-25T17:57:59.833Z,69.20
2023-02-25T18:00:31.072Z,69.20
2023-02-25T18:03:16.933Z,69.20
2023-02-25T18:05:54.568Z,69.00
2023-02-25T18:08:25.451Z,69.00
2023-02-25T18:10:57.382Z,69.00
2023-02-25T18:13:27.546Z,68.90
2023-02-25T18:16:31.605Z,68.80
2023-02-25T18:19:00.022Z,68.60
2023-02-25T18:21:27.296Z,68.60
2023-02-25T18:23:54.335Z,68.60
2023-02-25T18:26:25.886Z,68.60
2023-02-25T18:28:53.685Z,68.60
2023-02-25T18:31:21.067Z,68.60
2023-02-25T18:33:48.452Z,68.70
2023-02-25T18:36:26.668Z,68.70
2023-02-25T18:38:54.801Z,68.70
2023-02-25T18:41:21.628Z,68.70
2023-02-25T18:43:48.640Z,68.70
2023-02-25T18:46:15.781Z,68.80
2023-02-25T18:48:43.024Z,68.90
2023-02-25T18:51:12.261Z,68.90
2023-02-25T18:53:39.434Z,69.00
2023-02-25T18:56:07.914Z,69.10
2023-02-25T18:58:34.947Z,69.30
2023-02-25T19:01:02.336Z,69.40
2023-02-25T19:03:33.605Z,69.50
2023-02-25T19:06:00.509Z,69.60
2023-02-25T19:08:27.377Z,69.70
2023-02-25T19:10:54.325Z,70.30
2023-02-25T19:13:40.642Z,69.90
2023-02-25T19:16:07.901Z,70.00
2023-02-25T19:18:35.116Z,70.10
2023-02-25T19:21:02.092Z,70.20
2023-02-25T19:23:32.360Z,70.20
2023-02-25T19:26:00.261Z,70.30
2023-02-25T19:28:27.288Z,70.40
2023-02-25T19:30:54.168Z,70.50
2023-02-25T19:33:21.129Z,70.60
2023-02-25T19:35:48.312Z,70.60
2023-02-25T19:38:17.318Z,70.70
2023-02-25T19:40:44.504Z,70.80
2023-02-25T19:43:11.726Z,71.00
2023-02-25T19:45:39.845Z,71.10
2023-02-25T19:48:07.066Z,71.20
2023-02-25T19:50:35.001Z,71.30
2023-02-25T19:53:02.968Z,71.40
2023-02-25T19:55:29.931Z,71.60
2023-02-25T19:57:57.119Z,71.60
2023-02-25T20:00:25.115Z,71.70
2023-02-25T20:02:53.867Z,71.80
2023-02-25T20:05:21.312Z,72.00
2023-02-25T20:07:48.318Z,72.10
2023-02-25T20:10:15.299Z,72.20
2023-02-25T20:12:42.723Z,72.20
2023-02-25T20:15:11.567Z,72.40
2023-02-25T20:17:42.386Z,72.50
2023-02-25T20:20:10.324Z,72.60
2023-02-25T20:22:37.765Z,72.70
2023-02-25T20:25:05.404Z,72.80
2023-02-25T20:27:32.855Z,72.90
2023-02-25T20:29:59.791Z,73.00
2023-02-25T20:32:26.818Z,73.10
2023-02-25T20:34:53.938Z,73.20
2023-02-25T20:37:22.810Z,73.30
2023-02-25T20:39:54.030Z,73.40
2023-02-25T20:42:26.176Z,73.60
2023-02-25T20:44:53.723Z,73.70
2023-02-25T20:47:25.974Z,73.70
2023-02-25T20:49:53.188Z,73.80
2023-02-25T20:52:20.328Z,73.90
2023-02-25T20:54:47.462Z,73.90
2023-02-25T20:57:15.887Z,74.40
2023-02-25T20:59:42.780Z,74.00
2023-02-25T21:02:10.618Z,74.00
2023-02-25T21:04:37.498Z,74.10
2023-02-25T21:07:04.555Z,74.10
2023-02-25T21:09:31.558Z,74.20
2023-02-25T21:11:58.445Z,74.30
2023-02-25T21:14:25.384Z,74.40
2023-02-25T21:16:54.384Z,74.40
2023-02-25T21:19:22.897Z,74.40
2023-02-25T21:21:52.001Z,74.40
2023-02-25T21:24:19.133Z,74.50
2023-02-25T21:26:46.517Z,74.60
2023-02-25T21:29:13.992Z,74.70
2023-02-25T21:31:41.123Z,74.70
2023-02-25T21:34:09.299Z,74.70
2023-02-25T21:36:36.409Z,74.80
2023-02-25T21:39:03.531Z,74.80
2023-02-25T21:41:31.674Z,74.80
2023-02-25T21:43:58.513Z,74.90
2023-02-25T21:46:28.983Z,74.90
2023-02-25T21:48:56.044Z,74.90
2023-02-25T21:51:24.528Z,75.00
2023-02-25T21:53:55.758Z,75.00
2023-02-25T21:56:23.472Z,75.00
2023-02-25T21:58:54.317Z,75.10
2023-02-25T22:01:26.198Z,75.10
2023-02-25T22:03:53.097Z,75.10
2023-02-25T22:06:24.193Z,75.20
2023-02-25T22:08:51.592Z,75.20
2023-02-25T22:11:28.679Z,75.30
2023-02-25T22:13:55.680Z,75.40
2023-02-25T22:16:23.534Z,75.50
2023-02-25T22:18:51.353Z,76.20
2023-02-25T22:21:23.963Z,75.70
2023-02-25T22:23:51.334Z,75.70
2023-02-25T22:26:20.347Z,75.70
2023-02-25T22:28:47.331Z,75.80
2023-02-25T22:31:17.934Z,75.80
2023-02-25T22:33:45.404Z,75.90
2023-02-25T22:36:12.829Z,76.00
2023-02-25T22:38:41.586Z,76.00
2023-02-25T22:41:26.993Z,76.00
2023-02-25T22:43:54.100Z,76.00
2023-02-25T22:46:31.420Z,76.00
2023-02-25T22:48:58.430Z,76.00
2023-02-25T22:51:30.291Z,76.00
2023-02-25T22:53:57.264Z,76.00
2023-02-25T22:56:24.640Z,76.00
2023-02-25T22:58:51.727Z,76.00
2023-02-25T23:01:19.740Z,75.90
2023-02-25T23:03:47.251Z,76.00
2023-02-25T23:06:15.787Z,76.10
2023-02-25T23:08:42.747Z,76.10
2023-02-25T23:11:12.382Z,76.20
2023-02-25T23:13:46.058Z,76.40
2023-02-25T23:16:14.715Z,76.50
2023-02-25T23:18:42.646Z,76.60
2023-02-25T23:21:13.067Z,76.70
2023-02-25T23:23:41.194Z,76.80
2023-02-25T23:26:08.623Z,76.90
2023-02-25T23:28:36.144Z,77.00
2023-02-25T23:31:04.314Z,77.10
2023-02-25T23:33:31.430Z,77.30
2023-02-25T23:35:58.991Z,77.30
2023-02-25T23:38:26.007Z,77.40
2023-02-25T23:40:53.028Z,77.50
2023-02-25T23:43:19.994Z,77.60
2023-02-25T23:45:47.505Z,77.60
2023-02-25T23:48:14.474Z,77.60
2023-02-25T23:50:41.418Z,77.70
2023-02-25T23:53:08.503Z,77.80
2023-02-25T23:55:36.153Z,77.80
2023-02-25T23:58:03.413Z,77.90
